Terminal Aerodrome Forecast
Issued by NWS

Home | Current Version | Previous Version | Text Only | Print | Product List | Glossary On
Versions: 1 2 3 4 5 6 7 8 9 10 11 12 13 14 15 16 17 18 19 20 21 22 23 24
000
FTUS46 KEKA 272347
TAFCEC
TAF
KCEC 272347Z 2800/2824 20007KT P6SM FEW150 SCT250
     FM280300 20003KT P6SM SCT015 BKN200
     FM280600 VRB03KT 6SM BR SCT010 OVC200
      TEMPO 2813/2816 4SM BR BKN005
     FM281700 18007KT P6SM SCT010 OVC150
     FM282000 23009KT P6SM SCT012 BKN200=

USA.gov is the U.S. government's official web portal to all federal, state and local government web resources and services.